sensor_id;sensor_type;location;lat;lon;timestamp;P1;durP1;ratioP1;P2;durP2;ratioP2
64235;SDS011;50564;47.402;9.740;2024-03-08T00:03:07;10.75;;;5.82;;
64235;SDS011;50564;47.402;9.740;2024-03-08T00:08:08;10.68;;;5.50;;
64235;SDS011;50564;47.402;9.740;2024-03-08T00:13:11;11.95;;;6.45;;
64235;SDS011;50564;47.402;9.740;2024-03-08T00:18:12;11.80;;;5.72;;
64235;SDS011;50564;47.402;9.740;2024-03-08T00:23:12;9.65;;;5.63;;
64235;SDS011;50564;47.402;9.740;2024-03-08T00:28:13;10.98;;;5.95;;
64235;SDS011;50564;47.402;9.740;2024-03-08T00:33:15;10.90;;;6.10;;
64235;SDS011;50564;47.402;9.740;2024-03-08T00:38:15;11.00;;;6.05;;
64235;SDS011;50564;47.402;9.740;2024-03-08T00:43:16;11.38;;;5.15;;
64235;SDS011;50564;47.402;9.740;2024-03-08T00:48:17;9.43;;;5.15;;
64235;SDS011;50564;47.402;9.740;2024-03-08T00:53:17;9.13;;;5.20;;
64235;SDS011;50564;47.402;9.740;2024-03-08T00:58:18;9.43;;;4.60;;
64235;SDS011;50564;47.402;9.740;2024-03-08T01:03:19;12.35;;;5.40;;
64235;SDS011;50564;47.402;9.740;2024-03-08T01:08:20;9.77;;;5.00;;
64235;SDS011;50564;47.402;9.740;2024-03-08T01:13:20;9.07;;;4.93;;
64235;SDS011;50564;47.402;9.740;2024-03-08T01:18:21;8.75;;;5.05;;
64235;SDS011;50564;47.402;9.740;2024-03-08T01:23:22;8.30;;;4.18;;
64235;SDS011;50564;47.402;9.740;2024-03-08T01:28:26;9.90;;;6.22;;
64235;SDS011;50564;47.402;9.740;2024-03-08T01:33:26;9.35;;;5.25;;
64235;SDS011;50564;47.402;9.740;2024-03-08T01:38:27;8.73;;;4.47;;
64235;SDS011;50564;47.402;9.740;2024-03-08T01:43:28;10.18;;;5.43;;
64235;SDS011;50564;47.402;9.740;2024-03-08T01:48:29;10.63;;;5.38;;
64235;SDS011;50564;47.402;9.740;2024-03-08T01:53:30;9.60;;;4.68;;
64235;SDS011;50564;47.402;9.740;2024-03-08T01:58:31;8.20;;;4.20;;
64235;SDS011;50564;47.402;9.740;2024-03-08T02:03:33;8.82;;;4.20;;
64235;SDS011;50564;47.402;9.740;2024-03-08T02:08:33;8.57;;;5.00;;
64235;SDS011;50564;47.402;9.740;2024-03-08T02:13:34;8.75;;;4.82;;
64235;SDS011;50564;47.402;9.740;2024-03-08T02:18:35;9.00;;;4.63;;
64235;SDS011;50564;47.402;9.740;2024-03-08T02:23:36;11.63;;;4.32;;
64235;SDS011;50564;47.402;9.740;2024-03-08T02:28:37;7.03;;;3.90;;
64235;SDS011;50564;47.402;9.740;2024-03-08T02:33:39;7.28;;;3.38;;
64235;SDS011;50564;47.402;9.740;2024-03-08T02:38:39;7.85;;;3.97;;
64235;SDS011;50564;47.402;9.740;2024-03-08T02:43:43;8.18;;;4.60;;
64235;SDS011;50564;47.402;9.740;2024-03-08T02:48:45;7.32;;;4.05;;
64235;SDS011;50564;47.402;9.740;2024-03-08T02:53:47;7.63;;;4.20;;
64235;SDS011;50564;47.402;9.740;2024-03-08T02:58:49;7.72;;;4.07;;
64235;SDS011;50564;47.402;9.740;2024-03-08T03:03:49;9.63;;;4.85;;
64235;SDS011;50564;47.402;9.740;2024-03-08T03:08:50;10.18;;;5.07;;
64235;SDS011;50564;47.402;9.740;2024-03-08T03:13:51;8.15;;;4.97;;
64235;SDS011;50564;47.402;9.740;2024-03-08T03:18:52;8.35;;;4.53;;
64235;SDS011;50564;47.402;9.740;2024-03-08T03:23:52;7.22;;;3.85;;
64235;SDS011;50564;47.402;9.740;2024-03-08T03:28:53;7.88;;;3.88;;
64235;SDS011;50564;47.402;9.740;2024-03-08T03:33:54;7.20;;;3.90;;
64235;SDS011;50564;47.402;9.740;2024-03-08T03:38:54;8.57;;;4.45;;
64235;SDS011;50564;47.402;9.740;2024-03-08T03:44:12;7.07;;;3.83;;
64235;SDS011;50564;47.402;9.740;2024-03-08T03:49:13;9.57;;;5.30;;
64235;SDS011;50564;47.402;9.740;2024-03-08T03:54:13;9.48;;;4.95;;
64235;SDS011;50564;47.402;9.740;2024-03-08T03:59:14;11.68;;;5.20;;
64235;SDS011;50564;47.402;9.740;2024-03-08T04:04:15;9.55;;;4.97;;
64235;SDS011;50564;47.402;9.740;2024-03-08T04:09:15;6.82;;;4.15;;
64235;SDS011;50564;47.402;9.740;2024-03-08T04:14:19;8.75;;;4.53;;
64235;SDS011;50564;47.402;9.740;2024-03-08T04:19:19;8.98;;;4.30;;
64235;SDS011;50564;47.402;9.740;2024-03-08T04:24:20;8.38;;;5.30;;
64235;SDS011;50564;47.402;9.740;2024-03-08T04:29:20;9.23;;;5.00;;
64235;SDS011;50564;47.402;9.740;2024-03-08T04:34:22;9.77;;;5.13;;
64235;SDS011;50564;47.402;9.740;2024-03-08T04:39:22;8.48;;;4.57;;
64235;SDS011;50564;47.402;9.740;2024-03-08T04:44:23;13.25;;;8.82;;
64235;SDS011;50564;47.402;9.740;2024-03-08T04:49:24;15.13;;;8.30;;
64235;SDS011;50564;47.402;9.740;2024-03-08T04:54:25;15.00;;;8.93;;
64235;SDS011;50564;47.402;9.740;2024-03-08T04:59:26;14.60;;;7.45;;
64235;SDS011;50564;47.402;9.740;2024-03-08T05:04:27;10.70;;;5.78;;
64235;SDS011;50564;47.402;9.740;2024-03-08T05:09:29;9.27;;;4.82;;
64235;SDS011;50564;47.402;9.740;2024-03-08T05:14:32;10.55;;;6.78;;
64235;SDS011;50564;47.402;9.740;2024-03-08T05:19:32;12.48;;;6.55;;
64235;SDS011;50564;47.402;9.740;2024-03-08T05:24:33;15.55;;;7.18;;
64235;SDS011;50564;47.402;9.740;2024-03-08T05:29:34;12.95;;;7.95;;
64235;SDS011;50564;47.402;9.740;2024-03-08T05:34:35;10.48;;;6.40;;
64235;SDS011;50564;47.402;9.740;2024-03-08T05:39:35;14.18;;;7.50;;
64235;SDS011;50564;47.402;9.740;2024-03-08T05:44:36;11.35;;;6.82;;
64235;SDS011;50564;47.402;9.740;2024-03-08T05:49:37;14.45;;;8.13;;
64235;SDS011;50564;47.402;9.740;2024-03-08T05:54:38;13.45;;;7.72;;
64235;SDS011;50564;47.402;9.740;2024-03-08T05:59:38;14.35;;;8.35;;
64235;SDS011;50564;47.402;9.740;2024-03-08T06:04:39;17.38;;;10.05;;
64235;SDS011;50564;47.402;9.740;2024-03-08T06:09:40;20.45;;;11.98;;
64235;SDS011;50564;47.402;9.740;2024-03-08T06:14:41;21.38;;;13.15;;
64235;SDS011;50564;47.402;9.740;2024-03-08T06:19:42;21.67;;;12.40;;
64235;SDS011;50564;47.402;9.740;2024-03-08T06:24:42;21.70;;;12.73;;
64235;SDS011;50564;47.402;9.740;2024-03-08T06:29:43;33.58;;;19.25;;
64235;SDS011;50564;47.402;9.740;2024-03-08T06:34:44;40.65;;;21.65;;
64235;SDS011;50564;47.402;9.740;2024-03-08T06:39:44;42.25;;;20.48;;
64235;SDS011;50564;47.402;9.740;2024-03-08T06:44:45;37.03;;;16.75;;
64235;SDS011;50564;47.402;9.740;2024-03-08T06:49:49;26.20;;;14.75;;
64235;SDS011;50564;47.402;9.740;2024-03-08T06:54:50;21.75;;;12.88;;
64235;SDS011;50564;47.402;9.740;2024-03-08T06:59:52;19.05;;;12.80;;
64235;SDS011;50564;47.402;9.740;2024-03-08T07:04:54;23.85;;;15.10;;
64235;SDS011;50564;47.402;9.740;2024-03-08T07:09:55;30.45;;;16.73;;
64235;SDS011;50564;47.402;9.740;2024-03-08T07:14:56;30.48;;;17.08;;
64235;SDS011;50564;47.402;9.740;2024-03-08T07:19:57;29.65;;;17.58;;
64235;SDS011;50564;47.402;9.740;2024-03-08T07:24:59;32.58;;;18.60;;
64235;SDS011;50564;47.402;9.740;2024-03-08T07:30:21;34.70;;;19.90;;
64235;SDS011;50564;47.402;9.740;2024-03-08T07:35:41;37.33;;;21.73;;
64235;SDS011;50564;47.402;9.740;2024-03-08T07:40:45;34.05;;;21.15;;
64235;SDS011;50564;47.402;9.740;2024-03-08T07:45:46;34.35;;;19.85;;
64235;SDS011;50564;47.402;9.740;2024-03-08T07:50:47;39.10;;;22.58;;
64235;SDS011;50564;47.402;9.740;2024-03-08T07:55:50;41.72;;;24.02;;
64235;SDS011;50564;47.402;9.740;2024-03-08T08:00:50;37.47;;;20.70;;
64235;SDS011;50564;47.402;9.740;2024-03-08T08:05:51;35.50;;;21.27;;
64235;SDS011;50564;47.402;9.740;2024-03-08T08:10:52;34.60;;;20.25;;
64235;SDS011;50564;47.402;9.740;2024-03-08T08:15:52;28.98;;;18.38;;
64235;SDS011;50564;47.402;9.740;2024-03-08T08:20:53;31.23;;;18.65;;
64235;SDS011;50564;47.402;9.740;2024-03-08T08:25:54;34.25;;;18.05;;
64235;SDS011;50564;47.402;9.740;2024-03-08T08:30:55;27.83;;;16.58;;
64235;SDS011;50564;47.402;9.740;2024-03-08T08:35:56;20.95;;;13.63;;
64235;SDS011;50564;47.402;9.740;2024-03-08T08:40:57;25.27;;;15.40;;
64235;SDS011;50564;47.402;9.740;2024-03-08T08:45:57;28.02;;;15.23;;
64235;SDS011;50564;47.402;9.740;2024-03-08T08:50:58;22.60;;;14.25;;
64235;SDS011;50564;47.402;9.740;2024-03-08T08:55:59;20.15;;;13.10;;
64235;SDS011;50564;47.402;9.740;2024-03-08T09:01:02;24.17;;;14.98;;
64235;SDS011;50564;47.402;9.740;2024-03-08T09:06:05;24.58;;;13.23;;
64235;SDS011;50564;47.402;9.740;2024-03-08T09:11:11;25.35;;;15.27;;
64235;SDS011;50564;47.402;9.740;2024-03-08T09:16:12;15.82;;;10.23;;
64235;SDS011;50564;47.402;9.740;2024-03-08T09:21:13;18.35;;;10.63;;
64235;SDS011;50564;47.402;9.740;2024-03-08T09:26:14;19.13;;;11.55;;
64235;SDS011;50564;47.402;9.740;2024-03-08T09:31:15;26.90;;;13.15;;
64235;SDS011;50564;47.402;9.740;2024-03-08T09:36:16;22.90;;;14.93;;
64235;SDS011;50564;47.402;9.740;2024-03-08T09:41:17;26.38;;;14.90;;
64235;SDS011;50564;47.402;9.740;2024-03-08T09:46:18;26.20;;;15.40;;
64235;SDS011;50564;47.402;9.740;2024-03-08T09:51:24;28.48;;;16.05;;
64235;SDS011;50564;47.402;9.740;2024-03-08T09:56:28;28.05;;;16.05;;
64235;SDS011;50564;47.402;9.740;2024-03-08T10:01:29;27.83;;;16.50;;
64235;SDS011;50564;47.402;9.740;2024-03-08T10:06:29;27.52;;;16.60;;
64235;SDS011;50564;47.402;9.740;2024-03-08T10:11:31;30.13;;;17.30;;
64235;SDS011;50564;47.402;9.740;2024-03-08T10:16:32;28.98;;;16.33;;
64235;SDS011;50564;47.402;9.740;2024-03-08T10:21:32;25.77;;;15.50;;
64235;SDS011;50564;47.402;9.740;2024-03-08T10:26:33;28.27;;;16.63;;
64235;SDS011;50564;47.402;9.740;2024-03-08T10:31:34;27.23;;;16.02;;
64235;SDS011;50564;47.402;9.740;2024-03-08T10:36:35;24.23;;;15.45;;
64235;SDS011;50564;47.402;9.740;2024-03-08T10:41:38;29.55;;;16.83;;
64235;SDS011;50564;47.402;9.740;2024-03-08T10:46:56;26.35;;;14.90;;
64235;SDS011;50564;47.402;9.740;2024-03-08T10:52:05;26.05;;;15.70;;
64235;SDS011;50564;47.402;9.740;2024-03-08T10:57:08;23.05;;;14.65;;
64235;SDS011;50564;47.402;9.740;2024-03-08T11:02:13;24.92;;;15.65;;
64235;SDS011;50564;47.402;9.740;2024-03-08T11:07:15;21.70;;;13.90;;
64235;SDS011;50564;47.402;9.740;2024-03-08T11:12:20;23.52;;;14.07;;
64235;SDS011;50564;47.402;9.740;2024-03-08T11:22:34;23.08;;;14.13;;
64235;SDS011;50564;47.402;9.740;2024-03-08T11:27:37;23.00;;;14.25;;
64235;SDS011;50564;47.402;9.740;2024-03-08T11:32:38;24.45;;;15.57;;
64235;SDS011;50564;47.402;9.740;2024-03-08T11:37:46;21.08;;;13.88;;
64235;SDS011;50564;47.402;9.740;2024-03-08T11:42:48;26.70;;;15.55;;
64235;SDS011;50564;47.402;9.740;2024-03-08T11:47:49;21.08;;;13.75;;
64235;SDS011;50564;47.402;9.740;2024-03-08T11:52:50;20.15;;;13.73;;
64235;SDS011;50564;47.402;9.740;2024-03-08T11:57:58;19.63;;;13.80;;
64235;SDS011;50564;47.402;9.740;2024-03-08T12:03:01;22.05;;;14.00;;
64235;SDS011;50564;47.402;9.740;2024-03-08T12:08:02;22.25;;;14.63;;
64235;SDS011;50564;47.402;9.740;2024-03-08T12:13:06;22.65;;;14.93;;
64235;SDS011;50564;47.402;9.740;2024-03-08T12:18:12;24.27;;;15.70;;
64235;SDS011;50564;47.402;9.740;2024-03-08T12:23:14;21.50;;;14.88;;
64235;SDS011;50564;47.402;9.740;2024-03-08T12:28:15;22.77;;;14.85;;
64235;SDS011;50564;47.402;9.740;2024-03-08T12:33:16;23.10;;;14.90;;
64235;SDS011;50564;47.402;9.740;2024-03-08T12:38:16;22.98;;;15.38;;
64235;SDS011;50564;47.402;9.740;2024-03-08T12:43:17;25.50;;;15.98;;
64235;SDS011;50564;47.402;9.740;2024-03-08T12:48:18;21.35;;;14.35;;
64235;SDS011;50564;47.402;9.740;2024-03-08T12:53:21;22.63;;;15.00;;
64235;SDS011;50564;47.402;9.740;2024-03-08T12:58:23;23.52;;;15.75;;
64235;SDS011;50564;47.402;9.740;2024-03-08T13:03:24;23.55;;;15.70;;
64235;SDS011;50564;47.402;9.740;2024-03-08T13:08:24;25.85;;;16.63;;
64235;SDS011;50564;47.402;9.740;2024-03-08T13:13:27;23.02;;;15.23;;
64235;SDS011;50564;47.402;9.740;2024-03-08T13:18:28;25.75;;;16.30;;
64235;SDS011;50564;47.402;9.740;2024-03-08T13:23:29;24.63;;;17.23;;
64235;SDS011;50564;47.402;9.740;2024-03-08T13:28:29;25.75;;;17.00;;
64235;SDS011;50564;47.402;9.740;2024-03-08T13:33:34;25.15;;;16.80;;
64235;SDS011;50564;47.402;9.740;2024-03-08T13:38:35;32.58;;;20.75;;
64235;SDS011;50564;47.402;9.740;2024-03-08T13:43:37;48.40;;;31.52;;
64235;SDS011;50564;47.402;9.740;2024-03-08T13:48:38;37.30;;;24.05;;
64235;SDS011;50564;47.402;9.740;2024-03-08T13:53:39;31.73;;;20.55;;
64235;SDS011;50564;47.402;9.740;2024-03-08T13:58:47;26.50;;;17.98;;
64235;SDS011;50564;47.402;9.740;2024-03-08T14:08:49;22.98;;;15.68;;
64235;SDS011;50564;47.402;9.740;2024-03-08T14:13:50;22.70;;;16.60;;
64235;SDS011;50564;47.402;9.740;2024-03-08T14:18:52;26.17;;;16.60;;
64235;SDS011;50564;47.402;9.740;2024-03-08T14:23:52;25.45;;;16.02;;
64235;SDS011;50564;47.402;9.740;2024-03-08T14:28:53;25.95;;;16.50;;
64235;SDS011;50564;47.402;9.740;2024-03-08T14:33:54;32.50;;;21.08;;
64235;SDS011;50564;47.402;9.740;2024-03-08T14:38:57;24.58;;;15.82;;
64235;SDS011;50564;47.402;9.740;2024-03-08T14:43:57;28.08;;;16.50;;
64235;SDS011;50564;47.402;9.740;2024-03-08T14:48:59;24.52;;;16.92;;
64235;SDS011;50564;47.402;9.740;2024-03-08T14:54:06;25.25;;;16.92;;
64235;SDS011;50564;47.402;9.740;2024-03-08T14:59:07;25.13;;;17.17;;
64235;SDS011;50564;47.402;9.740;2024-03-08T15:04:12;23.30;;;16.92;;
64235;SDS011;50564;47.402;9.740;2024-03-08T15:09:12;28.08;;;17.77;;
64235;SDS011;50564;47.402;9.740;2024-03-08T15:14:17;25.95;;;16.38;;
64235;SDS011;50564;47.402;9.740;2024-03-08T15:19:20;24.23;;;16.13;;
64235;SDS011;50564;47.402;9.740;2024-03-08T15:24:20;25.77;;;17.80;;
64235;SDS011;50564;47.402;9.740;2024-03-08T15:29:22;25.98;;;17.70;;
64235;SDS011;50564;47.402;9.740;2024-03-08T15:34:26;27.50;;;18.33;;
64235;SDS011;50564;47.402;9.740;2024-03-08T15:39:27;25.80;;;18.13;;
64235;SDS011;50564;47.402;9.740;2024-03-08T15:44:28;26.73;;;17.92;;
64235;SDS011;50564;47.402;9.740;2024-03-08T15:49:28;29.15;;;18.95;;
64235;SDS011;50564;47.402;9.740;2024-03-08T15:54:29;28.33;;;18.63;;
64235;SDS011;50564;47.402;9.740;2024-03-08T15:59:29;26.98;;;18.23;;
64235;SDS011;50564;47.402;9.740;2024-03-08T16:04:34;26.30;;;16.73;;
64235;SDS011;50564;47.402;9.740;2024-03-08T16:09:34;27.27;;;18.02;;
64235;SDS011;50564;47.402;9.740;2024-03-08T16:14:38;24.88;;;17.52;;
64235;SDS011;50564;47.402;9.740;2024-03-08T16:19:38;28.08;;;18.98;;
64235;SDS011;50564;47.402;9.740;2024-03-08T16:24:42;26.52;;;17.58;;
64235;SDS011;50564;47.402;9.740;2024-03-08T16:29:43;26.10;;;17.50;;
64235;SDS011;50564;47.402;9.740;2024-03-08T16:34:47;27.55;;;18.58;;
64235;SDS011;50564;47.402;9.740;2024-03-08T16:39:48;26.30;;;18.00;;
64235;SDS011;50564;47.402;9.740;2024-03-08T16:44:48;28.05;;;17.98;;
64235;SDS011;50564;47.402;9.740;2024-03-08T16:49:49;34.90;;;19.98;;
64235;SDS011;50564;47.402;9.740;2024-03-08T16:54:50;27.00;;;18.73;;
64235;SDS011;50564;47.402;9.740;2024-03-08T16:59:51;30.52;;;19.33;;
64235;SDS011;50564;47.402;9.740;2024-03-08T17:04:52;29.20;;;19.50;;
64235;SDS011;50564;47.402;9.740;2024-03-08T17:09:52;23.15;;;16.08;;
64235;SDS011;50564;47.402;9.740;2024-03-08T17:14:53;22.33;;;15.18;;
64235;SDS011;50564;47.402;9.740;2024-03-08T17:19:54;18.85;;;12.95;;
64235;SDS011;50564;47.402;9.740;2024-03-08T17:24:55;19.90;;;13.07;;
64235;SDS011;50564;47.402;9.740;2024-03-08T17:29:55;23.15;;;14.23;;
64235;SDS011;50564;47.402;9.740;2024-03-08T17:34:56;23.17;;;15.98;;
64235;SDS011;50564;47.402;9.740;2024-03-08T17:39:57;29.30;;;19.17;;
64235;SDS011;50564;47.402;9.740;2024-03-08T17:44:58;53.15;;;37.97;;
64235;SDS011;50564;47.402;9.740;2024-03-08T17:50:00;26.05;;;17.50;;
64235;SDS011;50564;47.402;9.740;2024-03-08T17:55:01;20.42;;;13.20;;
64235;SDS011;50564;47.402;9.740;2024-03-08T18:00:04;23.35;;;13.45;;
64235;SDS011;50564;47.402;9.740;2024-03-08T18:05:18;27.42;;;18.05;;
64235;SDS011;50564;47.402;9.740;2024-03-08T18:10:19;30.67;;;21.70;;
64235;SDS011;50564;47.402;9.740;2024-03-08T18:15:22;68.18;;;51.28;;
64235;SDS011;50564;47.402;9.740;2024-03-08T18:20:31;31.90;;;23.17;;
64235;SDS011;50564;47.402;9.740;2024-03-08T18:25:32;7.40;;;4.80;;
64235;SDS011;50564;47.402;9.740;2024-03-08T18:30:34;7.47;;;6.68;;
64235;SDS011;50564;47.402;9.740;2024-03-08T18:35:39;9.10;;;7.03;;
64235;SDS011;50564;47.402;9.740;2024-03-08T18:40:41;9.02;;;4.15;;
64235;SDS011;50564;47.402;9.740;2024-03-08T18:45:44;7.03;;;5.20;;
64235;SDS011;50564;47.402;9.740;2024-03-08T18:50:45;6.78;;;4.28;;
64235;SDS011;50564;47.402;9.740;2024-03-08T18:55:46;8.70;;;5.25;;
64235;SDS011;50564;47.402;9.740;2024-03-08T19:00:47;9.02;;;5.63;;
64235;SDS011;50564;47.402;9.740;2024-03-08T19:05:49;6.53;;;4.55;;
64235;SDS011;50564;47.402;9.740;2024-03-08T19:10:50;7.95;;;5.65;;
64235;SDS011;50564;47.402;9.740;2024-03-08T19:15:51;5.55;;;3.05;;
64235;SDS011;50564;47.402;9.740;2024-03-08T19:20:51;7.75;;;3.92;;
64235;SDS011;50564;47.402;9.740;2024-03-08T19:25:52;6.07;;;2.53;;
64235;SDS011;50564;47.402;9.740;2024-03-08T19:30:53;5.85;;;3.50;;
64235;SDS011;50564;47.402;9.740;2024-03-08T19:35:54;4.85;;;2.90;;
64235;SDS011;50564;47.402;9.740;2024-03-08T19:40:55;3.47;;;2.22;;
64235;SDS011;50564;47.402;9.740;2024-03-08T19:45:57;5.32;;;3.15;;
64235;SDS011;50564;47.402;9.740;2024-03-08T19:50:58;3.65;;;2.50;;
64235;SDS011;50564;47.402;9.740;2024-03-08T19:56:05;5.78;;;2.88;;
64235;SDS011;50564;47.402;9.740;2024-03-08T20:01:06;3.33;;;2.03;;
64235;SDS011;50564;47.402;9.740;2024-03-08T20:06:09;4.38;;;2.05;;
64235;SDS011;50564;47.402;9.740;2024-03-08T20:11:10;5.95;;;3.22;;
64235;SDS011;50564;47.402;9.740;2024-03-08T20:16:11;4.25;;;2.75;;
64235;SDS011;50564;47.402;9.740;2024-03-08T20:21:12;5.57;;;2.55;;
64235;SDS011;50564;47.402;9.740;2024-03-08T20:26:13;6.20;;;3.38;;
64235;SDS011;50564;47.402;9.740;2024-03-08T20:31:15;4.22;;;2.55;;
64235;SDS011;50564;47.402;9.740;2024-03-08T20:36:16;83.55;;;72.05;;
64235;SDS011;50564;47.402;9.740;2024-03-08T20:41:17;73.15;;;50.90;;
64235;SDS011;50564;47.402;9.740;2024-03-08T20:46:18;53.88;;;36.92;;
64235;SDS011;50564;47.402;9.740;2024-03-08T20:51:19;22.10;;;13.20;;
64235;SDS011;50564;47.402;9.740;2024-03-08T20:56:20;41.95;;;26.92;;
64235;SDS011;50564;47.402;9.740;2024-03-08T21:01:20;33.08;;;17.10;;
64235;SDS011;50564;47.402;9.740;2024-03-08T21:06:26;181.82;;;79.90;;
64235;SDS011;50564;47.402;9.740;2024-03-08T21:11:28;275.40;;;112.03;;
64235;SDS011;50564;47.402;9.740;2024-03-08T21:16:30;63.65;;;30.42;;
64235;SDS011;50564;47.402;9.740;2024-03-08T21:21:31;13.18;;;6.38;;
64235;SDS011;50564;47.402;9.740;2024-03-08T21:26:32;27.67;;;14.70;;
64235;SDS011;50564;47.402;9.740;2024-03-08T21:31:34;31.80;;;14.57;;
64235;SDS011;50564;47.402;9.740;2024-03-08T21:36:36;15.77;;;8.63;;
64235;SDS011;50564;47.402;9.740;2024-03-08T21:41:37;7.50;;;4.60;;
64235;SDS011;50564;47.402;9.740;2024-03-08T21:46:38;7.20;;;4.28;;
64235;SDS011;50564;47.402;9.740;2024-03-08T21:51:38;17.67;;;9.68;;
64235;SDS011;50564;47.402;9.740;2024-03-08T21:56:46;10.20;;;7.50;;
64235;SDS011;50564;47.402;9.740;2024-03-08T22:01:48;15.77;;;9.23;;
64235;SDS011;50564;47.402;9.740;2024-03-08T22:06:52;10.00;;;8.25;;
64235;SDS011;50564;47.402;9.740;2024-03-08T22:11:56;5.63;;;4.63;;
64235;SDS011;50564;47.402;9.740;2024-03-08T22:16:57;21.48;;;12.93;;
64235;SDS011;50564;47.402;9.740;2024-03-08T22:21:58;7.63;;;4.50;;
64235;SDS011;50564;47.402;9.740;2024-03-08T22:26:59;5.95;;;3.63;;
64235;SDS011;50564;47.402;9.740;2024-03-08T22:32:01;10.25;;;5.22;;
64235;SDS011;50564;47.402;9.740;2024-03-08T22:37:01;6.13;;;3.38;;
64235;SDS011;50564;47.402;9.740;2024-03-08T22:42:05;6.57;;;4.00;;
64235;SDS011;50564;47.402;9.740;2024-03-08T22:47:05;9.05;;;4.38;;
64235;SDS011;50564;47.402;9.740;2024-03-08T22:52:07;7.47;;;4.35;;
64235;SDS011;50564;47.402;9.740;2024-03-08T22:57:08;7.65;;;4.20;;
64235;SDS011;50564;47.402;9.740;2024-03-08T23:02:09;5.15;;;3.30;;
64235;SDS011;50564;47.402;9.740;2024-03-08T23:07:10;4.22;;;2.63;;
64235;SDS011;50564;47.402;9.740;2024-03-08T23:12:11;7.72;;;4.10;;
64235;SDS011;50564;47.402;9.740;2024-03-08T23:17:11;11.00;;;6.03;;
64235;SDS011;50564;47.402;9.740;2024-03-08T23:22:13;10.93;;;6.70;;
64235;SDS011;50564;47.402;9.740;2024-03-08T23:27:14;10.88;;;6.18;;
64235;SDS011;50564;47.402;9.740;2024-03-08T23:32:15;8.05;;;4.47;;
64235;SDS011;50564;47.402;9.740;2024-03-08T23:37:16;7.72;;;4.70;;
64235;SDS011;50564;47.402;9.740;2024-03-08T23:42:17;9.77;;;5.22;;
64235;SDS011;50564;47.402;9.740;2024-03-08T23:47:18;12.90;;;7.78;;
64235;SDS011;50564;47.402;9.740;2024-03-08T23:52:18;11.13;;;6.78;;
64235;SDS011;50564;47.402;9.740;2024-03-08T23:57:21;15.32;;;9.90;;
